Decoded Metar for PATO (PORTAGE GLACIER in AK, USA) (IATA:POR) | Meteo·Mobile Aviation Weather
aviador You're here:

PATO Decoded Metar

PORTAGE GLACIER in AK, USA
Report Time2019-02-22 19:53:00
UTC Time2019-02-22 20:46:29
Flight Rules vfr VFR
Wind270° at 10 Gusting to 19 kt
W.Rank270° ranks 10
Current wind is above 270° avg. (7.4)
Visibility9999 m
Phenomena:N/A
Clouds:N/A
Expected CloudBase > 3,200 ft AGL from Temp-Dew spread
CeilingNone
Temp-4°C (ISA -19)
Dew Point-12°C (54% RH)
AAT-10.8°C
QNH1024 hPa
Density Alt-2,556 ft
Elevation102 ft
Report Wrong Elevation
Raw Report
PATO 221953Z AUTO 27010G19KT 10SM CLR M04/M12 A3024 RMK AO2 SLP240
T10441117 TSNO=

Extra information for PATO:More info

Metar Taf Metar & Taf Last 4 Metars F.Rules Stats Wind Profile Meteogram Temp Stats Airport Information Weather charts Add Link Nearby VenuesMetar ALERT Operation Metar Decoded Social comments

AIRNAV info for PATO